Aeroporto :
LOGIN :

Iscrizione | Disclaimer

   EN    FR    IT 

 










Sommario :    VFR   VFR Marginale   IFR   IFR Intensivo   IFR Molto Intensivo
Visibilità : 
Base nubi : 
>= 8 km
>= 3000ft
5 / 8 km
1000 / 3000 ft
1500m / 5 km
500 / 1000 ft
800 / 1500m
200 / 500 ft
< 800m
< 200 ft
Simboli :   Temporali  Nebbia  Neve Forte  Precipitazioni Forti  Vento > 20 kt
SIGMETs :   Varie  Temporali  Ghiacco  Turbolenza  Onda orograficha  Ceneri Vulcaniche






- Altitudine del aeroporto : 359 ft
- Codice IATA : BVA


LFOB - Beauvais

ULTIMO METAR :
  • 082000Z AUTO 24012KT 9999 FEW029 SCT150 BKN170 08/05 Q1005 TEMPO 25020G35KT 3000 SHRA BKN011 BKN025CB

METARs OBSOLETI :
  • 081930Z AUTO 22015KT 9999 FEW037 08/05 Q1005 TEMPO 25020G35KT 3000 SHRA BKN011 BKN025CB
  • 081900Z AUTO 23012KT 9999 FEW034 SCT040 07/04 Q1005 TEMPO 25020G35KT 3000 SHRA BKN011 BKN025CB
  • 081830Z AUTO 24014KT 9999 FEW042 SCT080 BKN130 08/04 Q1005 TEMPO 25020G35KT 3000 SHRA BKN011 BKN025CB
  • 081800Z AUTO 27019G30KT 240V300 9000 -RA BKN027/// BKN034/// OVC047/// ///TCU 08/05 Q1005 TEMPO 3000 SHRA BKN011 BKN025CB
  • 081730Z AUTO 24014KT 9999 BKN031/// BKN040/// OVC084/// ///CB 10/05 Q1005 TEMPO 25020G35KT 3000 SHRA BKN011 BKN025CB

TAF TAF LFOB
Valido dal 08 a 18 ore il 09 a 18 ore UTC


081700Z 0818/0918 25015G25KT 9999 SCT030
TEMPO 0818/0910 25020G35KT 3000 SHRA BKN011 BKN025CB
PROB40
TEMPO 0823/0908 24027G45KT 1300 TSRA
BECMG 0910/0912 34020G30KT
TEMPO 0910/0914 34025G35KT 3000 SHRA BKN025TCU
BECMG 0916/0918 34015KT
ATIS : +33 3 44 11 49 28



MetMap, La meteo Aeronautica in un colpo d'occhio ! - Copyright ORBIFLY Dicembre 2007 - Disclaimer

ORBIFLY MET'MAP TEAM :

Programmazione e sviluppo : Alexandra Zaïnal
Concezione : Baudouin d'Aumeries
Aiuto per la programmazione : Marc-Olivier Méhu
Supporto tecnico e logistico : Manuel Goepfert
Aiuto per la traduzione : Arnaldo La Scala

Contatto : metmap@orbifly.com




FONTI E CREDITI :

   NOAA